Flight Track Log - Related Links

Times and Time Zones

All times are in EDT time to prevent confusion due to time zone crossing. See the N724AE flight status page for this flight to view local times or setup timezone preferences in your user account.


Time Position Orientation Groundspeed Altitude Reporting Facility
EDT Latitude Longitude Course Direction KTS MPH feet Rate Location/Type
Sun 08:38:00 AM 19.3663 -98.3533 317° Northwest  Level Estimated
Sun 08:39:00 AM 19.4704 -98.3442 312° West  Level Estimated
Sun 08:40:00 AM 19.4695 -98.2361 317° Northwest  Level FlightAware Approximate
Sun 08:41:00 AM 19.5455 -98.3121 317° Northwest  Level FlightAware Approximate
Sun 08:42:00 AM 19.6278 -98.3796 328° Northwest  Level FlightAware Approximate
Sun 08:43:00 AM 19.7303 -98.3695 North  Level FlightAware Approximate
Sun 08:44:00 AM 19.8331 -98.3500 11° North  Level FlightAware Approximate
Sun 08:45:00 AM 19.9346 -98.3248 North  Level FlightAware Approximate
Sun 08:46:00 AM 20.0378 -98.3076 North  Level FlightAware Approximate
Sun 08:47:00 AM 20.1409 -98.2904 North  Level FlightAware Approximate
Sun 08:48:00 AM 20.2442 -98.2732 North  Level FlightAware Approximate
Sun 08:49:00 AM 20.3461 -98.2496 14° North  Level FlightAware Approximate
Sun 08:50:00 AM 20.4473 -98.2220 14° North  Level FlightAware Approximate
Sun 08:51:00 AM 20.5501 -98.2059 11° North  Level FlightAware Approximate
Sun 08:52:00 AM 20.6525 -98.1840 11° North  Level FlightAware Approximate
Sun 08:53:00 AM 20.7550 -98.1623 11° North  Level FlightAware Approximate
Sun 08:54:00 AM 20.8577 -98.1418 11° North  Level FlightAware Approximate
Sun 08:55:00 AM 20.9604 -98.1213 11° North  Level FlightAware Approximate
Sun 08:56:00 AM 21.0632 -98.1017 10° North  Level FlightAware Approximate
Sun 08:57:00 AM 21.1661 -98.0824 10° North  Level FlightAware Approximate
Sun 08:58:00 AM 21.2691 -98.0639 North  Level FlightAware Approximate
Sun 08:59:00 AM 21.3726 -98.0487 11° North  Level FlightAware Approximate
Sun 09:00:00 AM 21.4750 -98.0265 11° North  Level FlightAware Approximate
Sun 09:01:00 AM 21.5773 -98.0043 11° North  Level FlightAware Approximate
Sun 09:02:00 AM 21.6797 -97.9820 11° North  Level FlightAware Approximate
Sun 09:03:00 AM 21.7821 -97.9597 11° North  Level FlightAware Approximate
Sun 09:04:00 AM 21.8845 -97.9373 11° North  Level FlightAware Approximate
Sun 09:05:00 AM 21.9868 -97.9150 11° North  Level FlightAware Approximate
Sun 09:06:00 AM 22.0892 -97.8926 11° North  Level FlightAware Approximate
Sun 09:07:00 AM 22.1916 -97.8701 11° North  Level FlightAware Approximate
Sun 09:08:00 AM 22.2939 -97.8476 12° North  Level FlightAware Approximate
Sun 09:09:00 AM 22.3962 -97.8246 12° North  Level FlightAware Approximate
Sun 09:10:00 AM 22.4984 -97.8015 12° North  Level FlightAware Approximate
Sun 09:11:00 AM 22.6007 -97.7785 12° North  Level FlightAware Approximate
Sun 09:12:00 AM 22.7029 -97.7553 12° North  Level FlightAware Approximate
Sun 09:13:00 AM 22.8052 -97.7322 12° North  Level FlightAware Approximate
Sun 09:14:00 AM 22.9074 -97.7090 12° North  Level FlightAware Approximate
Sun 09:15:00 AM 23.0096 -97.6858 12° North  Level FlightAware Approximate
Sun 09:16:00 AM 23.1119 -97.6625 12° North  Level FlightAware Approximate
Sun 09:17:00 AM 23.2141 -97.6390 12° North  Level FlightAware Approximate
Sun 09:18:00 AM 23.3162 -97.6152 12° North  Level FlightAware Approximate
Sun 09:19:00 AM 23.4184 -97.5914 12° North  Level FlightAware Approximate
Sun 09:20:00 AM 23.5205 -97.5676 12° North  Level FlightAware Approximate
Sun 09:21:00 AM 23.6226 -97.5437 12° North  Level FlightAware Approximate
Sun 09:22:00 AM 23.7248 -97.5198 12° North  Level FlightAware Approximate
Sun 09:23:00 AM 23.8269 -97.4958 12° North  Level FlightAware Approximate
Sun 09:23:56 AM 24.4300 -99.0508 12° North 428 493 37,000  Level Houston Center
Sun 09:24:00 AM 23.9290 -97.4719 12° North  Level FlightAware Approximate
Sun 09:24:57 AM 24.5503 -99.0228 12° North 431 496 37,000  Level Houston Center
Sun 09:25:00 AM 24.0311 -97.4478 12° North  Level FlightAware Approximate
Sun 09:25:59 AM 24.6717 -99.0192 North 434 499 37,000  Level Houston Center
Sun 09:26:00 AM 24.1332 -97.4238 12° North  Level FlightAware Approximate
Sun 09:27:00 AM 24.2353 -97.3997 12° North  Level FlightAware Approximate
Sun 09:27:00 AM 24.8164 -98.9956 North 436 502 37,000  Level Houston Center
Sun 09:28:00 AM 24.3375 -97.3755 12° North  Level FlightAware Approximate
Sun 09:28:01 AM 24.9375 -98.9789 North 437 503 37,000  Level Houston Center
Sun 09:29:00 AM 24.4396 -97.3514 12° North  Level FlightAware Approximate
Sun 09:29:02 AM 25.0589 -98.9664 North 437 503 37,000  Level Houston Center
Sun 09:30:03 AM 25.1808 -98.9561 North 438 504 37,000  Level Houston Center
Sun 09:31:05 AM 25.3022 -98.9431 North 438 504 37,000  Level Houston Center
Sun 09:32:06 AM 25.4228 -98.9272 North 437 503 37,000  Level Houston Center
Sun 09:33:07 AM 25.5422 -98.9150 North 434 499 37,000  Level Houston Center
Sun 09:34:08 AM 25.6600 -98.9019 North 429 494 37,000  Level Houston Center
Sun 09:35:09 AM 25.7775 -98.8897 North 426 490 37,000  Level Houston Center
Sun 09:36:11 AM 25.8950 -98.8778 North 425 489 37,000  Level Houston Center
Sun 09:37:12 AM 26.0358 -98.8631 North 424 488 37,000  Level Houston Center
Sun 09:38:13 AM 26.1522 -98.8494 North 421 484 37,000  Level Houston Center
Sun 09:39:14 AM 26.2689 -98.8356 North 421 484 37,000  Level Houston Center
Sun 09:40:16 AM 26.3864 -98.8233 North 423 487 37,000  Level Houston Center
Sun 09:41:17 AM 26.5036 -98.8106 North 423 487 37,000 -49 Level Houston Center
Sun 09:42:18 AM 26.6211 -98.7981 North 425 489 36,900  Descending Houston Center
Sun 09:43:19 AM 26.7378 -98.7864 North 422 486 37,000 49 Climbing Houston Center
Sun 09:44:21 AM 26.8536 -98.7722 North 420 483 37,000  Level Houston Center
Sun 09:45:22 AM 26.9703 -98.7600 North 421 484 37,000  Level Houston Center
Sun 09:46:23 AM 27.1108 -98.7442 North 423 487 37,000  Level Houston Center
Sun 09:47:25 AM 27.2275 -98.7317 North 424 488 37,000  Level Houston Center
Sun 09:48:26 AM 27.3439 -98.7186 North 423 487 37,000  Level Houston Center
Sun 09:49:27 AM 27.4594 -98.7056 North 422 486 37,000  Level Houston Center
Sun 09:50:29 AM 27.5753 -98.6914 North 424 488 37,000  Level Houston Center
Sun 09:51:30 AM 27.6919 -98.6786 North 425 489 37,000  Level Houston Center
Sun 09:52:31 AM 27.8311 -98.6647 North 421 484 37,000  Level Houston Center
Sun 09:53:33 AM 27.9478 -98.6508 North 422 486 37,000  Level Houston Center
Sun 09:54:34 AM 28.0636 -98.6375 North 420 483 37,000  Level Houston Center
Sun 09:55:35 AM 28.1800 -98.6258 North 420 483 37,000  Level Houston Center
Sun 09:56:37 AM 28.2964 -98.6122 North 419 482 37,000  Level Houston Center
Sun 09:57:38 AM 28.4142 -98.6003 North 423 487 37,000  Level Houston Center
Sun 09:58:40 AM 28.5319 -98.5875 North 425 489 37,000  Level Houston Center
Sun 09:59:41 AM 28.6483 -98.5728 North 422 486 37,000  Level Houston Center
Sun 10:00:43 AM 28.7928 -98.5581 North 425 489 37,000  Level Houston Center
Sun 10:01:44 AM 28.9097 -98.5453 North 422 486 37,000  Level Houston Center
Sun 10:02:46 AM 29.0261 -98.5328 North 420 483 37,000  Level Houston Center
Sun 10:03:47 AM 29.1497 -98.5178 North 416 479 37,000  Level Houston Center
Sun 10:04:49 AM 29.2639 -98.5047 North 413 475 37,000  Level Houston Center
Sun 10:05:50 AM 29.3756 -98.4917 North 419 482 37,000  Level Houston Center
Sun 10:06:52 AM 29.4914 -98.4792 North 418 481 37,000  Level Houston Center
Sun 10:07:53 AM 29.6078 -98.4656 North 419 482 37,000  Level Houston Center
Sun 10:08:55 AM 29.7211 -98.4506 North 413 475 37,000  Level Houston Center
Sun 10:09:56 AM 29.8469 -98.4322 North 414 476 37,000  Level Houston Center
Sun 10:10:58 AM 29.9767 -98.4122 North 414 476 37,000  Level Houston Center
Sun 10:12:00 AM 30.0908 -98.3942 North 414 476 37,000  Level Houston Center
Sun 10:13:01 AM 30.2050 -98.3775 North 413 475 37,000  Level Houston Center
Sun 10:14:03 AM 30.3094 -98.3622 North 416 479 37,000  Level Houston Center
Sun 10:15:04 AM 30.4264 -98.3464 North 417 480 37,000  Level Houston Center
Sun 10:16:06 AM 30.5619 -98.3264 North 414 476 37,000  Level Houston Center
Sun 10:17:08 AM 30.6783 -98.3094 North 415 478 37,000  Level Houston Center
Sun 10:18:09 AM 30.7942 -98.2925 North 414 476 37,000  Level Houston Center
Sun 10:19:21 AM 30.9306 -98.2731 North 408 470 37,000  Level Fort Worth Center
Sun 10:20:20 AM 31.0456 -98.2569 North 408 470 37,000  Level Fort Worth Center
Sun 10:21:20 AM 31.1583 -98.2386 North 408 470 37,000  Level Fort Worth Center
Sun 10:22:22 AM 31.2628 -98.2225 North 408 470 37,000  Level Fort Worth Center
Sun 10:23:22 AM 31.3736 -98.1894 14° North 408 470 37,000 -1,424 Level Fort Worth Center
Sun 10:24:20 AM 31.4889 -98.1247 26° Northeast 434 499 34,200 -3,000 Descending Fort Worth Center
Sun 10:25:20 AM 31.6019 -98.0644 24° Northeast 446 513 31,100 -3,050 Descending Fort Worth Center
Sun 10:26:20 AM 31.7214 -98.0019 24° Northeast 446 513 28,100 -2,951 Descending Fort Worth Center
Sun 10:27:22 AM 31.8511 -97.9294 25° Northeast 455 524 25,100 -3,050 Descending Fort Worth Center
Sun 10:28:20 AM 31.9661 -97.8639 26° Northeast 462 532 22,000 -2,773 Descending Fort Worth Center
Sun 10:29:21 AM 32.0708 -97.8106 23° Northeast 450 518 19,600 -2,508 Descending Fort Worth Center
Sun 10:30:22 AM 32.1878 -97.7447 25° Northeast 431 496 16,900 -2,430 Descending Fort Worth Center
Sun 10:31:22 AM 32.2819 -97.6936 25° Northeast 411 473 14,700 -2,150 Descending Fort Worth Center
Sun 10:32:22 AM 32.3844 -97.6103 34° Northeast 405 466 12,600 -1,831 Descending Fort Worth Center
Sun 10:33:20 AM 32.4533 -97.5242 47° Northeast 393 452 11,100 -814 Descending Fort Worth Center
Sun 10:34:20 AM 32.5369 -97.4233 45° Northeast 393 452 11,000 -49 Descending Fort Worth Center
Sun 10:35:22 AM 32.6058 -97.3419 45° Northeast 393 452 11,000  Level Fort Worth Center
Sun 10:36:21 AM 32.6892 -97.2406 46° Northeast 388 447 11,000  Level Fort Worth Center
Sun 10:37:22 AM 32.7456 -97.1811 42° Northeast 331 381 11,000 -446 Level Fort Worth Center
Sun 10:38:22 AM 32.8164 -97.1661 10° North 271 312 10,100 -1,220 Descending Fort Worth Center
Sun 10:39:20 AM 32.8875 -97.1661 360° North 258 297 8,600 -1,627 Descending Fort Worth Center
Sun 10:40:20 AM 32.9689 -97.1633 North 253 291 6,900 -1,388 Descending Fort Worth Center
Sun 10:41:21 AM 33.0294 -97.1656 358° North 253 291 5,800 -1,240 Descending Fort Worth Center
Sun 10:42:21 AM 33.1003 -97.1631 North 231 266 4,400 -1,339 Descending Fort Worth Center
Sun 10:43:22 AM 33.1544 -97.1381 21° North 231 266 3,100 -700 Descending Fort Worth Center
Sun 10:44:21 AM 33.1628 -97.0661 82° East 177 204 3,000 -50 Descending Fort Worth Center
Sun 10:45:22 AM 33.1189 -97.0564 169° South 128 147 3,000  Level Fort Worth Center

Login

Don't have an account? Register now (free) for customized features, flight alerts, and more!